DENVER INTL

KDEN (DEN)
Denver, Colorado
Towered

Vatsim Metar:
KDEN 190953Z 25009KT 10SM SCT240 19/08 A3006 RMK AO2 SLP083 T01940083 $

No ATC Online

Traffic

Inbound:
Ident
Type
Name
ETA
Phase
UAL181
H/B788/L
Farbod Tehrani KLAX
17:04 Z
Cruse

Outbound:
Ident
Type
Name
Destination
Phase

SIDs

STARS

Alternate Minimums

Hot Spots